sensor_id;sensor_type;location;lat;lon;timestamp;P1;durP1;ratioP1;P2;durP2;ratioP2
30824;SDS011;17550;45.486;12.222;2023-04-03T00:00:05;26.40;;;16.92;;
30824;SDS011;17550;45.486;12.222;2023-04-03T00:02:32;26.40;;;18.02;;
30824;SDS011;17550;45.486;12.222;2023-04-03T00:04:58;26.38;;;18.02;;
30824;SDS011;17550;45.486;12.222;2023-04-03T00:07:23;29.05;;;17.70;;
30824;SDS011;17550;45.486;12.222;2023-04-03T00:09:50;22.55;;;17.33;;
30824;SDS011;17550;45.486;12.222;2023-04-03T00:12:16;31.38;;;18.23;;
30824;SDS011;17550;45.486;12.222;2023-04-03T00:14:41;28.27;;;18.27;;
30824;SDS011;17550;45.486;12.222;2023-04-03T00:17:07;31.15;;;19.60;;
30824;SDS011;17550;45.486;12.222;2023-04-03T00:19:33;62.80;;;31.88;;
30824;SDS011;17550;45.486;12.222;2023-04-03T00:21:58;33.78;;;21.98;;
30824;SDS011;17550;45.486;12.222;2023-04-03T00:24:24;33.55;;;21.20;;
30824;SDS011;17550;45.486;12.222;2023-04-03T00:26:50;29.88;;;20.52;;
30824;SDS011;17550;45.486;12.222;2023-04-03T00:29:16;34.95;;;21.20;;
30824;SDS011;17550;45.486;12.222;2023-04-03T00:31:41;34.50;;;21.75;;
30824;SDS011;17550;45.486;12.222;2023-04-03T00:34:07;31.88;;;21.42;;
30824;SDS011;17550;45.486;12.222;2023-04-03T00:36:32;31.95;;;21.05;;
30824;SDS011;17550;45.486;12.222;2023-04-03T00:38:58;35.17;;;23.10;;
30824;SDS011;17550;45.486;12.222;2023-04-03T00:41:24;31.90;;;22.60;;
30824;SDS011;17550;45.486;12.222;2023-04-03T00:43:50;36.63;;;23.85;;
30824;SDS011;17550;45.486;12.222;2023-04-03T00:46:16;36.38;;;24.05;;
30824;SDS011;17550;45.486;12.222;2023-04-03T00:48:45;34.88;;;23.90;;
30824;SDS011;17550;45.486;12.222;2023-04-03T00:51:22;39.40;;;24.65;;
30824;SDS011;17550;45.486;12.222;2023-04-03T00:53:53;40.47;;;23.85;;
30824;SDS011;17550;45.486;12.222;2023-04-03T00:56:23;36.20;;;23.75;;
30824;SDS011;17550;45.486;12.222;2023-04-03T00:58:56;37.55;;;23.45;;
30824;SDS011;17550;45.486;12.222;2023-04-03T01:01:25;38.03;;;23.83;;
30824;SDS011;17550;45.486;12.222;2023-04-03T01:03:52;35.50;;;22.50;;
30824;SDS011;17550;45.486;12.222;2023-04-03T01:06:20;44.25;;;23.23;;
30824;SDS011;17550;45.486;12.222;2023-04-03T01:11:16;43.15;;;20.65;;
30824;SDS011;17550;45.486;12.222;2023-04-03T01:13:43;35.53;;;20.30;;
30824;SDS011;17550;45.486;12.222;2023-04-03T01:16:09;28.92;;;19.50;;
30824;SDS011;17550;45.486;12.222;2023-04-03T01:18:36;29.15;;;18.73;;
30824;SDS011;17550;45.486;12.222;2023-04-03T01:26:57;29.75;;;17.40;;
30824;SDS011;17550;45.486;12.222;2023-04-03T01:29:23;31.17;;;16.80;;
30824;SDS011;17550;45.486;12.222;2023-04-03T01:31:52;25.02;;;17.08;;
30824;SDS011;17550;45.486;12.222;2023-04-03T01:34:20;27.20;;;14.70;;
30824;SDS011;17550;45.486;12.222;2023-04-03T01:36:46;23.98;;;14.63;;
30824;SDS011;17550;45.486;12.222;2023-04-03T01:39:12;24.17;;;14.38;;
30824;SDS011;17550;45.486;12.222;2023-04-03T01:41:38;21.20;;;13.68;;
30824;SDS011;17550;45.486;12.222;2023-04-03T01:44:03;25.73;;;14.40;;
30824;SDS011;17550;45.486;12.222;2023-04-03T01:46:29;27.17;;;14.95;;
30824;SDS011;17550;45.486;12.222;2023-04-03T01:48:55;22.85;;;15.32;;
30824;SDS011;17550;45.486;12.222;2023-04-03T01:51:21;25.75;;;15.25;;
30824;SDS011;17550;45.486;12.222;2023-04-03T01:53:46;26.05;;;15.65;;
30824;SDS011;17550;45.486;12.222;2023-04-03T01:56:12;23.58;;;14.45;;
30824;SDS011;17550;45.486;12.222;2023-04-03T01:58:38;23.65;;;15.32;;
30824;SDS011;17550;45.486;12.222;2023-04-03T02:01:04;21.10;;;15.10;;
30824;SDS011;17550;45.486;12.222;2023-04-03T02:03:31;27.13;;;15.95;;
30824;SDS011;17550;45.486;12.222;2023-04-03T02:05:57;23.58;;;15.23;;
30824;SDS011;17550;45.486;12.222;2023-04-03T02:08:23;23.98;;;14.75;;
30824;SDS011;17550;45.486;12.222;2023-04-03T02:10:49;24.52;;;15.77;;
30824;SDS011;17550;45.486;12.222;2023-04-03T02:13:16;25.05;;;15.32;;
30824;SDS011;17550;45.486;12.222;2023-04-03T02:15:42;24.75;;;14.00;;
30824;SDS011;17550;45.486;12.222;2023-04-03T02:18:08;26.13;;;15.20;;
30824;SDS011;17550;45.486;12.222;2023-04-03T02:20:34;22.48;;;15.23;;
30824;SDS011;17550;45.486;12.222;2023-04-03T02:23:00;23.88;;;13.82;;
30824;SDS011;17550;45.486;12.222;2023-04-03T02:25:26;22.40;;;14.23;;
30824;SDS011;17550;45.486;12.222;2023-04-03T02:27:52;23.42;;;13.95;;
30824;SDS011;17550;45.486;12.222;2023-04-03T02:30:18;27.98;;;15.00;;
30824;SDS011;17550;45.486;12.222;2023-04-03T02:32:44;23.92;;;14.15;;
30824;SDS011;17550;45.486;12.222;2023-04-03T02:35:10;21.38;;;13.80;;
30824;SDS011;17550;45.486;12.222;2023-04-03T02:37:36;25.67;;;14.15;;
30824;SDS011;17550;45.486;12.222;2023-04-03T02:40:02;23.48;;;13.68;;
30824;SDS011;17550;45.486;12.222;2023-04-03T02:42:29;22.40;;;12.65;;
30824;SDS011;17550;45.486;12.222;2023-04-03T02:44:55;17.65;;;11.30;;
30824;SDS011;17550;45.486;12.222;2023-04-03T02:47:21;14.43;;;10.30;;
30824;SDS011;17550;45.486;12.222;2023-04-03T02:49:47;13.90;;;9.50;;
30824;SDS011;17550;45.486;12.222;2023-04-03T02:52:13;13.70;;;9.15;;
30824;SDS011;17550;45.486;12.222;2023-04-03T02:54:39;19.00;;;9.75;;
30824;SDS011;17550;45.486;12.222;2023-04-03T02:57:05;15.98;;;8.80;;
30824;SDS011;17550;45.486;12.222;2023-04-03T02:59:33;11.55;;;7.60;;
30824;SDS011;17550;45.486;12.222;2023-04-03T03:02:00;10.48;;;7.07;;
30824;SDS011;17550;45.486;12.222;2023-04-03T03:04:26;12.07;;;6.65;;
30824;SDS011;17550;45.486;12.222;2023-04-03T03:06:51;9.35;;;5.63;;
30824;SDS011;17550;45.486;12.222;2023-04-03T03:09:17;7.25;;;4.75;;
30824;SDS011;17550;45.486;12.222;2023-04-03T03:11:43;5.50;;;3.90;;
30824;SDS011;17550;45.486;12.222;2023-04-03T03:14:09;7.20;;;3.83;;
30824;SDS011;17550;45.486;12.222;2023-04-03T03:16:35;7.35;;;3.97;;
30824;SDS011;17550;45.486;12.222;2023-04-03T03:19:00;8.88;;;3.35;;
30824;SDS011;17550;45.486;12.222;2023-04-03T03:21:26;5.28;;;2.95;;
30824;SDS011;17550;45.486;12.222;2023-04-03T03:23:52;4.47;;;2.47;;
30824;SDS011;17550;45.486;12.222;2023-04-03T03:26:18;9.27;;;2.55;;
30824;SDS011;17550;45.486;12.222;2023-04-03T03:28:43;4.00;;;2.22;;
30824;SDS011;17550;45.486;12.222;2023-04-03T03:31:09;3.70;;;2.28;;
30824;SDS011;17550;45.486;12.222;2023-04-03T03:33:35;3.67;;;1.88;;
30824;SDS011;17550;45.486;12.222;2023-04-03T03:36:01;5.55;;;1.70;;
30824;SDS011;17550;45.486;12.222;2023-04-03T03:38:27;6.57;;;2.50;;
30824;SDS011;17550;45.486;12.222;2023-04-03T03:40:53;5.82;;;2.28;;
30824;SDS011;17550;45.486;12.222;2023-04-03T03:43:19;6.30;;;2.95;;
30824;SDS011;17550;45.486;12.222;2023-04-03T03:45:46;4.05;;;2.33;;
30824;SDS011;17550;45.486;12.222;2023-04-03T03:48:16;12.63;;;3.10;;
30824;SDS011;17550;45.486;12.222;2023-04-03T03:50:42;5.57;;;2.40;;
30824;SDS011;17550;45.486;12.222;2023-04-03T03:53:07;6.22;;;2.67;;
30824;SDS011;17550;45.486;12.222;2023-04-03T03:55:33;8.07;;;2.60;;
30824;SDS011;17550;45.486;12.222;2023-04-03T03:57:59;7.90;;;3.00;;
30824;SDS011;17550;45.486;12.222;2023-04-03T04:00:26;5.88;;;3.13;;
30824;SDS011;17550;45.486;12.222;2023-04-03T04:02:52;5.57;;;2.75;;
30824;SDS011;17550;45.486;12.222;2023-04-03T04:05:18;4.97;;;3.05;;
30824;SDS011;17550;45.486;12.222;2023-04-03T04:07:43;6.55;;;3.45;;
30824;SDS011;17550;45.486;12.222;2023-04-03T04:10:09;7.03;;;4.18;;
30824;SDS011;17550;45.486;12.222;2023-04-03T04:12:35;9.65;;;5.05;;
30824;SDS011;17550;45.486;12.222;2023-04-03T04:15:01;8.77;;;5.03;;
30824;SDS011;17550;45.486;12.222;2023-04-03T04:17:27;11.52;;;5.90;;
30824;SDS011;17550;45.486;12.222;2023-04-03T04:19:53;13.35;;;6.30;;
30824;SDS011;17550;45.486;12.222;2023-04-03T04:22:18;12.05;;;6.40;;
30824;SDS011;17550;45.486;12.222;2023-04-03T04:24:44;9.90;;;6.68;;
30824;SDS011;17550;45.486;12.222;2023-04-03T04:27:10;12.68;;;7.18;;
30824;SDS011;17550;45.486;12.222;2023-04-03T04:29:35;12.57;;;7.72;;
30824;SDS011;17550;45.486;12.222;2023-04-03T04:32:05;16.45;;;7.80;;
30824;SDS011;17550;45.486;12.222;2023-04-03T04:34:30;12.15;;;7.82;;
30824;SDS011;17550;45.486;12.222;2023-04-03T04:36:56;13.90;;;7.45;;
30824;SDS011;17550;45.486;12.222;2023-04-03T04:39:22;13.45;;;7.63;;
30824;SDS011;17550;45.486;12.222;2023-04-03T04:41:48;11.65;;;7.22;;
30824;SDS011;17550;45.486;12.222;2023-04-03T04:44:13;15.50;;;7.85;;
30824;SDS011;17550;45.486;12.222;2023-04-03T04:46:39;14.25;;;7.75;;
30824;SDS011;17550;45.486;12.222;2023-04-03T04:49:05;12.73;;;8.50;;
30824;SDS011;17550;45.486;12.222;2023-04-03T04:51:31;19.90;;;8.48;;
30824;SDS011;17550;45.486;12.222;2023-04-03T04:53:57;14.95;;;7.82;;
30824;SDS011;17550;45.486;12.222;2023-04-03T04:56:22;17.88;;;8.57;;
30824;SDS011;17550;45.486;12.222;2023-04-03T04:58:48;29.75;;;8.98;;
30824;SDS011;17550;45.486;12.222;2023-04-03T05:01:14;12.85;;;7.68;;
30824;SDS011;17550;45.486;12.222;2023-04-03T05:03:40;13.50;;;8.48;;
30824;SDS011;17550;45.486;12.222;2023-04-03T05:06:05;18.13;;;7.93;;
30824;SDS011;17550;45.486;12.222;2023-04-03T05:08:31;17.70;;;7.38;;
30824;SDS011;17550;45.486;12.222;2023-04-03T05:10:57;13.25;;;8.27;;
30824;SDS011;17550;45.486;12.222;2023-04-03T05:13:23;22.30;;;8.13;;
30824;SDS011;17550;45.486;12.222;2023-04-03T05:15:49;12.40;;;8.18;;
30824;SDS011;17550;45.486;12.222;2023-04-03T05:18:15;15.00;;;8.02;;
30824;SDS011;17550;45.486;12.222;2023-04-03T05:20:40;12.88;;;8.57;;
30824;SDS011;17550;45.486;12.222;2023-04-03T05:23:08;15.20;;;9.27;;
30824;SDS011;17550;45.486;12.222;2023-04-03T05:25:36;15.60;;;9.25;;
30824;SDS011;17550;45.486;12.222;2023-04-03T05:28:02;21.15;;;8.18;;
30824;SDS011;17550;45.486;12.222;2023-04-03T05:30:28;19.77;;;8.80;;
30824;SDS011;17550;45.486;12.222;2023-04-03T05:32:54;18.75;;;9.70;;
30824;SDS011;17550;45.486;12.222;2023-04-03T05:35:20;15.32;;;9.23;;
30824;SDS011;17550;45.486;12.222;2023-04-03T05:37:46;21.67;;;8.80;;
30824;SDS011;17550;45.486;12.222;2023-04-03T05:40:12;15.85;;;8.63;;
30824;SDS011;17550;45.486;12.222;2023-04-03T05:42:39;15.57;;;7.78;;
30824;SDS011;17550;45.486;12.222;2023-04-03T05:45:05;14.43;;;8.65;;
30824;SDS011;17550;45.486;12.222;2023-04-03T05:47:31;18.73;;;8.85;;
30824;SDS011;17550;45.486;12.222;2023-04-03T05:49:57;16.52;;;7.22;;
30824;SDS011;17550;45.486;12.222;2023-04-03T05:52:26;16.58;;;7.40;;
30824;SDS011;17550;45.486;12.222;2023-04-03T05:54:53;15.35;;;7.57;;
30824;SDS011;17550;45.486;12.222;2023-04-03T05:57:19;13.50;;;5.72;;
30824;SDS011;17550;45.486;12.222;2023-04-03T05:59:45;11.85;;;6.28;;
30824;SDS011;17550;45.486;12.222;2023-04-03T06:02:13;14.82;;;6.68;;
30824;SDS011;17550;45.486;12.222;2023-04-03T06:04:41;9.73;;;5.40;;
30824;SDS011;17550;45.486;12.222;2023-04-03T06:07:08;19.17;;;5.30;;
30824;SDS011;17550;45.486;12.222;2023-04-03T06:09:47;13.85;;;5.10;;
30824;SDS011;17550;45.486;12.222;2023-04-03T06:12:13;8.77;;;4.78;;
30824;SDS011;17550;45.486;12.222;2023-04-03T06:14:39;13.18;;;5.55;;
30824;SDS011;17550;45.486;12.222;2023-04-03T06:17:06;10.05;;;5.03;;
30824;SDS011;17550;45.486;12.222;2023-04-03T06:19:33;13.27;;;4.82;;
30824;SDS011;17550;45.486;12.222;2023-04-03T06:22:00;14.85;;;4.70;;
30824;SDS011;17550;45.486;12.222;2023-04-03T06:24:26;13.45;;;4.68;;
30824;SDS011;17550;45.486;12.222;2023-04-03T06:26:52;8.68;;;4.53;;
30824;SDS011;17550;45.486;12.222;2023-04-03T06:29:18;11.80;;;5.13;;
30824;SDS011;17550;45.486;12.222;2023-04-03T06:31:45;13.98;;;4.70;;
30824;SDS011;17550;45.486;12.222;2023-04-03T06:34:11;12.35;;;4.47;;
30824;SDS011;17550;45.486;12.222;2023-04-03T06:36:37;13.32;;;5.25;;
30824;SDS011;17550;45.486;12.222;2023-04-03T06:39:03;17.65;;;4.97;;
30824;SDS011;17550;45.486;12.222;2023-04-03T06:41:30;13.63;;;5.07;;
30824;SDS011;17550;45.486;12.222;2023-04-03T06:43:56;10.00;;;4.57;;
30824;SDS011;17550;45.486;12.222;2023-04-03T06:46:23;7.30;;;4.22;;
30824;SDS011;17550;45.486;12.222;2023-04-03T06:48:50;7.82;;;3.22;;
30824;SDS011;17550;45.486;12.222;2023-04-03T06:53:51;13.55;;;3.25;;
30824;SDS011;17550;45.486;12.222;2023-04-03T06:56:19;11.20;;;3.05;;
30824;SDS011;17550;45.486;12.222;2023-04-03T06:58:44;10.50;;;2.45;;
30824;SDS011;17550;45.486;12.222;2023-04-03T07:01:11;11.43;;;2.47;;
30824;SDS011;17550;45.486;12.222;2023-04-03T07:03:39;12.98;;;2.38;;
30824;SDS011;17550;45.486;12.222;2023-04-03T07:06:05;9.63;;;2.50;;
30824;SDS011;17550;45.486;12.222;2023-04-03T07:08:32;7.20;;;2.50;;
30824;SDS011;17550;45.486;12.222;2023-04-03T07:10:58;9.32;;;2.25;;
30824;SDS011;17550;45.486;12.222;2023-04-03T07:13:24;14.27;;;3.22;;
30824;SDS011;17550;45.486;12.222;2023-04-03T07:15:50;11.55;;;2.63;;
30824;SDS011;17550;45.486;12.222;2023-04-03T07:18:16;17.05;;;2.55;;
30824;SDS011;17550;45.486;12.222;2023-04-03T07:20:44;12.68;;;2.65;;
30824;SDS011;17550;45.486;12.222;2023-04-03T07:23:10;17.88;;;2.58;;
30824;SDS011;17550;45.486;12.222;2023-04-03T07:25:36;15.88;;;2.65;;
30824;SDS011;17550;45.486;12.222;2023-04-03T07:28:07;15.02;;;2.33;;
30824;SDS011;17550;45.486;12.222;2023-04-03T07:30:33;14.40;;;2.40;;
30824;SDS011;17550;45.486;12.222;2023-04-03T07:32:58;15.43;;;2.40;;
30824;SDS011;17550;45.486;12.222;2023-04-03T07:35:24;15.65;;;2.78;;
30824;SDS011;17550;45.486;12.222;2023-04-03T07:37:50;14.77;;;2.70;;
30824;SDS011;17550;45.486;12.222;2023-04-03T07:40:16;14.85;;;3.13;;
30824;SDS011;17550;45.486;12.222;2023-04-03T07:42:42;15.85;;;3.05;;
30824;SDS011;17550;45.486;12.222;2023-04-03T07:45:07;7.72;;;2.42;;
30824;SDS011;17550;45.486;12.222;2023-04-03T07:47:34;12.02;;;2.88;;
30824;SDS011;17550;45.486;12.222;2023-04-03T07:50:00;15.35;;;2.67;;
30824;SDS011;17550;45.486;12.222;2023-04-03T07:52:25;14.38;;;2.67;;
30824;SDS011;17550;45.486;12.222;2023-04-03T07:54:51;14.18;;;3.10;;
30824;SDS011;17550;45.486;12.222;2023-04-03T07:57:17;14.35;;;2.45;;
30824;SDS011;17550;45.486;12.222;2023-04-03T07:59:42;14.90;;;3.08;;
30824;SDS011;17550;45.486;12.222;2023-04-03T08:02:11;16.85;;;2.80;;
30824;SDS011;17550;45.486;12.222;2023-04-03T08:04:38;11.23;;;2.60;;
30824;SDS011;17550;45.486;12.222;2023-04-03T08:07:04;11.63;;;2.30;;
30824;SDS011;17550;45.486;12.222;2023-04-03T08:09:30;14.68;;;2.78;;
30824;SDS011;17550;45.486;12.222;2023-04-03T08:11:56;14.45;;;2.85;;
30824;SDS011;17550;45.486;12.222;2023-04-03T08:14:23;17.35;;;2.42;;
30824;SDS011;17550;45.486;12.222;2023-04-03T08:16:49;16.30;;;2.53;;
30824;SDS011;17550;45.486;12.222;2023-04-03T08:19:15;7.85;;;2.47;;
30824;SDS011;17550;45.486;12.222;2023-04-03T08:21:43;13.20;;;2.42;;
30824;SDS011;17550;45.486;12.222;2023-04-03T08:24:10;10.27;;;2.30;;
30824;SDS011;17550;45.486;12.222;2023-04-03T08:26:35;10.48;;;2.90;;
30824;SDS011;17550;45.486;12.222;2023-04-03T08:29:01;16.38;;;2.35;;
30824;SDS011;17550;45.486;12.222;2023-04-03T08:31:27;14.77;;;2.30;;
30824;SDS011;17550;45.486;12.222;2023-04-03T08:33:53;7.95;;;2.42;;
30824;SDS011;17550;45.486;12.222;2023-04-03T08:36:20;12.25;;;2.45;;
30824;SDS011;17550;45.486;12.222;2023-04-03T08:38:48;9.25;;;2.20;;
30824;SDS011;17550;45.486;12.222;2023-04-03T08:41:16;7.90;;;2.65;;
30824;SDS011;17550;45.486;12.222;2023-04-03T08:49:45;19.25;;;2.75;;
30824;SDS011;17550;45.486;12.222;2023-04-03T08:54:57;15.30;;;2.80;;
30824;SDS011;17550;45.486;12.222;2023-04-03T08:57:35;8.45;;;2.50;;
30824;SDS011;17550;45.486;12.222;2023-04-03T09:00:06;15.00;;;2.35;;
30824;SDS011;17550;45.486;12.222;2023-04-03T09:02:43;5.80;;;1.90;;
30824;SDS011;17550;45.486;12.222;2023-04-03T09:05:12;14.88;;;2.90;;
30824;SDS011;17550;45.486;12.222;2023-04-03T09:08:26;5.57;;;1.98;;
30824;SDS011;17550;45.486;12.222;2023-04-03T09:10:37;15.50;;;2.72;;
30824;SDS011;17550;45.486;12.222;2023-04-03T09:16:02;14.65;;;2.47;;
30824;SDS011;17550;45.486;12.222;2023-04-03T09:18:41;17.48;;;2.53;;
30824;SDS011;17550;45.486;12.222;2023-04-03T09:21:19;7.60;;;2.27;;
30824;SDS011;17550;45.486;12.222;2023-04-03T09:23:51;16.50;;;2.35;;
30824;SDS011;17550;45.486;12.222;2023-04-03T09:26:19;10.93;;;2.58;;
30824;SDS011;17550;45.486;12.222;2023-04-03T09:28:51;8.85;;;2.83;;
30824;SDS011;17550;45.486;12.222;2023-04-03T09:31:24;14.02;;;2.22;;
30824;SDS011;17550;45.486;12.222;2023-04-03T09:33:56;17.65;;;2.70;;
30824;SDS011;17550;45.486;12.222;2023-04-03T09:37:00;16.73;;;2.88;;
30824;SDS011;17550;45.486;12.222;2023-04-03T09:39:25;23.45;;;3.92;;
30824;SDS011;17550;45.486;12.222;2023-04-03T09:42:03;14.18;;;2.90;;
30824;SDS011;17550;45.486;12.222;2023-04-03T09:44:35;18.33;;;2.38;;
30824;SDS011;17550;45.486;12.222;2023-04-03T09:47:44;19.60;;;2.83;;
30824;SDS011;17550;45.486;12.222;2023-04-03T09:52:54;12.38;;;2.47;;
30824;SDS011;17550;45.486;12.222;2023-04-03T09:55:24;18.10;;;2.70;;
30824;SDS011;17550;45.486;12.222;2023-04-03T09:57:57;14.07;;;2.72;;
30824;SDS011;17550;45.486;12.222;2023-04-03T10:00:25;17.80;;;3.03;;
30824;SDS011;17550;45.486;12.222;2023-04-03T10:02:54;12.10;;;3.03;;
30824;SDS011;17550;45.486;12.222;2023-04-03T10:08:10;17.38;;;3.53;;
30824;SDS011;17550;45.486;12.222;2023-04-03T10:10:37;27.55;;;3.33;;
30824;SDS011;17550;45.486;12.222;2023-04-03T10:13:22;14.95;;;3.00;;
30824;SDS011;17550;45.486;12.222;2023-04-03T10:16:03;19.80;;;2.95;;
30824;SDS011;17550;45.486;12.222;2023-04-03T10:21:27;22.40;;;2.78;;
30824;SDS011;17550;45.486;12.222;2023-04-03T10:24:32;22.23;;;3.30;;
30824;SDS011;17550;45.486;12.222;2023-04-03T10:43:09;16.90;;;3.20;;
30824;SDS011;17550;45.486;12.222;2023-04-03T10:51:06;22.20;;;3.03;;
30824;SDS011;17550;45.486;12.222;2023-04-03T10:58:53;13.88;;;2.38;;
30824;SDS011;17550;45.486;12.222;2023-04-03T11:01:24;17.98;;;2.55;;
30824;SDS011;17550;45.486;12.222;2023-04-03T11:03:57;13.07;;;2.22;;
30824;SDS011;17550;45.486;12.222;2023-04-03T11:06:25;18.60;;;2.75;;
30824;SDS011;17550;45.486;12.222;2023-04-03T11:09:18;14.23;;;3.10;;
30824;SDS011;17550;45.486;12.222;2023-04-03T11:12:09;19.83;;;3.00;;
30824;SDS011;17550;45.486;12.222;2023-04-03T11:14:42;13.88;;;2.63;;
30824;SDS011;17550;45.486;12.222;2023-04-03T11:20:00;18.05;;;3.05;;
30824;SDS011;17550;45.486;12.222;2023-04-03T11:22:42;13.00;;;2.40;;
30824;SDS011;17550;45.486;12.222;2023-04-03T11:27:40;12.25;;;3.08;;
30824;SDS011;17550;45.486;12.222;2023-04-03T11:30:18;15.55;;;2.40;;
30824;SDS011;17550;45.486;12.222;2023-04-03T11:35:49;12.63;;;2.10;;
30824;SDS011;17550;45.486;12.222;2023-04-03T11:38:41;9.32;;;2.28;;
30824;SDS011;17550;45.486;12.222;2023-04-03T11:41:08;15.98;;;2.63;;
30824;SDS011;17550;45.486;12.222;2023-04-03T11:43:54;14.15;;;2.60;;
30824;SDS011;17550;45.486;12.222;2023-04-03T12:13:36;14.13;;;2.20;;
30824;SDS011;17550;45.486;12.222;2023-04-03T12:16:05;13.10;;;2.58;;
30824;SDS011;17550;45.486;12.222;2023-04-03T12:21:22;10.77;;;2.70;;
30824;SDS011;17550;45.486;12.222;2023-04-03T12:26:47;10.27;;;1.98;;
30824;SDS011;17550;45.486;12.222;2023-04-03T12:45:30;14.15;;;2.88;;
30824;SDS011;17550;45.486;12.222;2023-04-03T12:48:20;15.63;;;2.30;;
30824;SDS011;17550;45.486;12.222;2023-04-03T12:50:50;12.35;;;2.35;;
30824;SDS011;17550;45.486;12.222;2023-04-03T12:53:21;16.55;;;2.30;;
30824;SDS011;17550;45.486;12.222;2023-04-03T12:55:56;10.02;;;2.60;;
30824;SDS011;17550;45.486;12.222;2023-04-03T12:58:42;15.40;;;2.88;;
30824;SDS011;17550;45.486;12.222;2023-04-03T13:01:15;12.75;;;2.75;;
30824;SDS011;17550;45.486;12.222;2023-04-03T13:03:51;10.23;;;3.05;;
30824;SDS011;17550;45.486;12.222;2023-04-03T13:06:23;8.40;;;2.53;;
30824;SDS011;17550;45.486;12.222;2023-04-03T13:11:19;14.65;;;2.50;;
30824;SDS011;17550;45.486;12.222;2023-04-03T13:13:54;13.68;;;2.42;;
30824;SDS011;17550;45.486;12.222;2023-04-03T13:16:21;15.65;;;2.97;;
30824;SDS011;17550;45.486;12.222;2023-04-03T13:18:50;12.82;;;3.70;;
30824;SDS011;17550;45.486;12.222;2023-04-03T13:21:21;12.05;;;2.22;;
30824;SDS011;17550;45.486;12.222;2023-04-03T13:23:54;11.20;;;1.77;;
30824;SDS011;17550;45.486;12.222;2023-04-03T13:26:24;15.60;;;2.47;;
30824;SDS011;17550;45.486;12.222;2023-04-03T13:28:52;10.00;;;2.28;;
30824;SDS011;17550;45.486;12.222;2023-04-03T13:31:32;8.25;;;1.90;;
30824;SDS011;17550;45.486;12.222;2023-04-03T13:34:09;19.95;;;2.13;;
30824;SDS011;17550;45.486;12.222;2023-04-03T13:36:38;8.65;;;2.17;;
30824;SDS011;17550;45.486;12.222;2023-04-03T13:41:39;6.95;;;1.77;;
30824;SDS011;17550;45.486;12.222;2023-04-03T13:46:54;6.63;;;2.13;;
30824;SDS011;17550;45.486;12.222;2023-04-03T13:51:59;7.53;;;1.90;;
30824;SDS011;17550;45.486;12.222;2023-04-03T13:56:58;6.63;;;1.85;;
30824;SDS011;17550;45.486;12.222;2023-04-03T13:59:35;4.53;;;1.40;;
30824;SDS011;17550;45.486;12.222;2023-04-03T14:04:27;13.05;;;1.80;;
30824;SDS011;17550;45.486;12.222;2023-04-03T14:06:58;11.73;;;1.80;;
30824;SDS011;17550;45.486;12.222;2023-04-03T14:09:26;7.90;;;1.85;;
30824;SDS011;17550;45.486;12.222;2023-04-03T14:11:56;7.07;;;1.85;;
30824;SDS011;17550;45.486;12.222;2023-04-03T14:14:29;5.00;;;1.40;;
30824;SDS011;17550;45.486;12.222;2023-04-03T14:16:58;7.00;;;1.50;;
30824;SDS011;17550;45.486;12.222;2023-04-03T14:19:27;6.07;;;1.90;;
30824;SDS011;17550;45.486;12.222;2023-04-03T14:21:53;6.57;;;1.50;;
30824;SDS011;17550;45.486;12.222;2023-04-03T14:24:21;7.00;;;2.10;;
30824;SDS011;17550;45.486;12.222;2023-04-03T14:26:47;8.93;;;1.77;;
30824;SDS011;17550;45.486;12.222;2023-04-03T14:29:15;7.88;;;1.83;;
30824;SDS011;17550;45.486;12.222;2023-04-03T14:31:45;7.00;;;1.80;;
30824;SDS011;17550;45.486;12.222;2023-04-03T14:34:12;7.28;;;1.60;;
30824;SDS011;17550;45.486;12.222;2023-04-03T14:36:39;9.48;;;2.13;;
30824;SDS011;17550;45.486;12.222;2023-04-03T14:39:08;4.43;;;1.55;;
30824;SDS011;17550;45.486;12.222;2023-04-03T14:41:41;6.07;;;1.40;;
30824;SDS011;17550;45.486;12.222;2023-04-03T14:44:07;6.22;;;1.63;;
30824;SDS011;17550;45.486;12.222;2023-04-03T14:46:34;6.50;;;1.50;;
30824;SDS011;17550;45.486;12.222;2023-04-03T14:49:03;10.40;;;1.63;;
30824;SDS011;17550;45.486;12.222;2023-04-03T14:51:32;7.90;;;1.65;;
30824;SDS011;17550;45.486;12.222;2023-04-03T14:53:59;5.22;;;1.65;;
30824;SDS011;17550;45.486;12.222;2023-04-03T14:56:26;4.00;;;1.80;;
30824;SDS011;17550;45.486;12.222;2023-04-03T14:58:55;6.07;;;1.55;;
30824;SDS011;17550;45.486;12.222;2023-04-03T15:01:26;2.47;;;1.40;;
30824;SDS011;17550;45.486;12.222;2023-04-03T15:03:52;3.42;;;1.45;;
30824;SDS011;17550;45.486;12.222;2023-04-03T15:06:18;8.00;;;2.03;;
30824;SDS011;17550;45.486;12.222;2023-04-03T15:08:45;5.20;;;1.50;;
30824;SDS011;17550;45.486;12.222;2023-04-03T15:11:12;9.82;;;5.75;;
30824;SDS011;17550;45.486;12.222;2023-04-03T15:13:39;8.27;;;1.98;;
30824;SDS011;17550;45.486;12.222;2023-04-03T15:16:26;5.45;;;1.58;;
30824;SDS011;17550;45.486;12.222;2023-04-03T15:18:51;7.32;;;1.90;;
30824;SDS011;17550;45.486;12.222;2023-04-03T15:21:17;5.82;;;1.60;;
30824;SDS011;17550;45.486;12.222;2023-04-03T15:23:43;4.13;;;1.77;;
30824;SDS011;17550;45.486;12.222;2023-04-03T15:26:08;3.25;;;1.20;;
30824;SDS011;17550;45.486;12.222;2023-04-03T15:28:35;7.97;;;1.67;;
30824;SDS011;17550;45.486;12.222;2023-04-03T15:31:02;2.75;;;1.67;;
30824;SDS011;17550;45.486;12.222;2023-04-03T15:33:29;3.30;;;1.40;;
30824;SDS011;17550;45.486;12.222;2023-04-03T15:35:56;5.38;;;1.55;;
30824;SDS011;17550;45.486;12.222;2023-04-03T15:38:21;3.83;;;1.35;;
30824;SDS011;17550;45.486;12.222;2023-04-03T15:40:47;6.72;;;1.30;;
30824;SDS011;17550;45.486;12.222;2023-04-03T15:43:14;4.63;;;1.73;;
30824;SDS011;17550;45.486;12.222;2023-04-03T15:45:40;4.82;;;1.60;;
30824;SDS011;17550;45.486;12.222;2023-04-03T15:48:06;3.20;;;1.77;;
30824;SDS011;17550;45.486;12.222;2023-04-03T15:50:33;7.47;;;2.10;;
30824;SDS011;17550;45.486;12.222;2023-04-03T15:52:59;4.25;;;1.40;;
30824;SDS011;17550;45.486;12.222;2023-04-03T15:55:27;9.55;;;1.80;;
30824;SDS011;17550;45.486;12.222;2023-04-03T15:57:54;4.25;;;1.52;;
30824;SDS011;17550;45.486;12.222;2023-04-03T16:00:21;3.75;;;1.50;;
30824;SDS011;17550;45.486;12.222;2023-04-03T16:02:48;4.18;;;1.35;;
30824;SDS011;17550;45.486;12.222;2023-04-03T16:05:17;4.13;;;1.40;;
30824;SDS011;17550;45.486;12.222;2023-04-03T16:07:44;17.58;;;2.28;;
30824;SDS011;17550;45.486;12.222;2023-04-03T16:10:11;5.93;;;1.10;;
30824;SDS011;17550;45.486;12.222;2023-04-03T16:12:37;3.45;;;1.27;;
30824;SDS011;17550;45.486;12.222;2023-04-03T16:15:03;5.00;;;1.40;;
30824;SDS011;17550;45.486;12.222;2023-04-03T16:17:31;2.83;;;1.50;;
30824;SDS011;17550;45.486;12.222;2023-04-03T16:19:57;7.55;;;1.75;;
30824;SDS011;17550;45.486;12.222;2023-04-03T16:22:24;4.50;;;1.77;;
30824;SDS011;17550;45.486;12.222;2023-04-03T16:24:52;4.35;;;1.58;;
30824;SDS011;17550;45.486;12.222;2023-04-03T16:27:18;8.40;;;2.38;;
30824;SDS011;17550;45.486;12.222;2023-04-03T16:29:45;6.65;;;1.73;;
30824;SDS011;17550;45.486;12.222;2023-04-03T16:32:11;9.63;;;1.88;;
30824;SDS011;17550;45.486;12.222;2023-04-03T16:34:37;18.30;;;7.82;;
30824;SDS011;17550;45.486;12.222;2023-04-03T16:37:05;6.50;;;1.80;;
30824;SDS011;17550;45.486;12.222;2023-04-03T16:39:33;4.57;;;1.67;;